sensor_id;sensor_type;location;lat;lon;timestamp;pressure;altitude;pressure_sealevel;temperature;humidity
65685;BME280;52405;50.844;-1.062;2022-08-19T00:02:21;101483.75;;;21.89;68.74
65685;BME280;52405;50.844;-1.062;2022-08-19T00:04:47;101491.69;;;21.89;69.45
65685;BME280;52405;50.844;-1.062;2022-08-19T00:07:21;101487.31;;;21.89;69.23
65685;BME280;52405;50.844;-1.062;2022-08-19T00:09:46;101488.19;;;21.88;69.31
65685;BME280;52405;50.844;-1.062;2022-08-19T00:12:12;101491.72;;;21.87;69.81
65685;BME280;52405;50.844;-1.062;2022-08-19T00:14:38;101481.13;;;21.87;69.80
65685;BME280;52405;50.844;-1.062;2022-08-19T00:17:06;101483.78;;;21.84;69.88
65685;BME280;52405;50.844;-1.062;2022-08-19T00:19:32;101484.63;;;21.85;70.02
65685;BME280;52405;50.844;-1.062;2022-08-19T00:21:58;101482.00;;;21.85;69.61
65685;BME280;52405;50.844;-1.062;2022-08-19T00:24:24;101447.63;;;21.69;69.77
65685;BME280;52405;50.844;-1.062;2022-08-19T00:26:51;101466.16;;;21.80;70.00
65685;BME280;52405;50.844;-1.062;2022-08-19T00:29:19;101475.84;;;21.84;70.03
65685;BME280;52405;50.844;-1.062;2022-08-19T00:31:46;101477.59;;;21.85;69.52
65685;BME280;52405;50.844;-1.062;2022-08-19T00:34:13;101467.91;;;21.84;69.51
65685;BME280;52405;50.844;-1.062;2022-08-19T00:36:40;101461.72;;;21.78;70.07
65685;BME280;52405;50.844;-1.062;2022-08-19T00:39:07;101477.59;;;21.85;69.63
65685;BME280;52405;50.844;-1.062;2022-08-19T00:41:33;101471.41;;;21.85;69.60
65685;BME280;52405;50.844;-1.062;2022-08-19T00:46:33;101464.38;;;21.84;69.68
65685;BME280;52405;50.844;-1.062;2022-08-19T00:49:05;101452.03;;;21.81;70.12
65685;BME280;52405;50.844;-1.062;2022-08-19T00:51:32;101460.88;;;21.82;69.77
65685;BME280;52405;50.844;-1.062;2022-08-19T00:53:58;101452.91;;;21.83;69.84
65685;BME280;52405;50.844;-1.062;2022-08-19T00:56:24;101450.28;;;21.82;69.37
65685;BME280;52405;50.844;-1.062;2022-08-19T00:58:54;101436.16;;;21.69;69.99
65685;BME280;52405;50.844;-1.062;2022-08-19T01:01:20;101449.38;;;21.81;70.10
65685;BME280;52405;50.844;-1.062;2022-08-19T01:03:45;101434.41;;;21.71;69.62
65685;BME280;52405;50.844;-1.062;2022-08-19T01:06:10;101450.28;;;21.80;69.49
65685;BME280;52405;50.844;-1.062;2022-08-19T01:08:36;101439.72;;;21.82;69.92
65685;BME280;52405;50.844;-1.062;2022-08-19T01:11:02;101444.97;;;21.85;69.95
65685;BME280;52405;50.844;-1.062;2022-08-19T01:13:30;101443.22;;;21.84;69.66
65685;BME280;52405;50.844;-1.062;2022-08-19T01:16:01;101442.31;;;21.83;70.23
65685;BME280;52405;50.844;-1.062;2022-08-19T01:18:28;101443.22;;;21.82;70.11
65685;BME280;52405;50.844;-1.062;2022-08-19T01:20:56;101440.56;;;21.81;70.11
65685;BME280;52405;50.844;-1.062;2022-08-19T01:23:23;101448.53;;;21.84;69.60
65685;BME280;52405;50.844;-1.062;2022-08-19T01:26:09;101444.09;;;21.83;69.99
65685;BME280;52405;50.844;-1.062;2022-08-19T01:28:36;101445.88;;;21.84;69.68
65685;BME280;52405;50.844;-1.062;2022-08-19T01:31:02;101442.31;;;21.83;69.69
65685;BME280;52405;50.844;-1.062;2022-08-19T01:33:28;101430.00;;;21.73;70.11
65685;BME280;52405;50.844;-1.062;2022-08-19T01:36:04;101449.38;;;21.80;70.12
65685;BME280;52405;50.844;-1.062;2022-08-19T01:38:30;101445.00;;;21.82;69.99
65685;BME280;52405;50.844;-1.062;2022-08-19T01:40:56;101444.09;;;21.78;70.22
65685;BME280;52405;50.844;-1.062;2022-08-19T01:43:22;101445.88;;;21.81;70.02
65685;BME280;52405;50.844;-1.062;2022-08-19T01:45:48;101446.72;;;21.81;69.79
65685;BME280;52405;50.844;-1.062;2022-08-19T01:48:14;101457.31;;;21.81;70.15
65685;BME280;52405;50.844;-1.062;2022-08-19T01:50:39;101447.63;;;21.80;69.89
65685;BME280;52405;50.844;-1.062;2022-08-19T01:53:09;101449.38;;;21.80;70.26
65685;BME280;52405;50.844;-1.062;2022-08-19T01:55:38;101444.09;;;21.78;69.87
65685;BME280;52405;50.844;-1.062;2022-08-19T01:58:06;101441.44;;;21.75;70.11
65685;BME280;52405;50.844;-1.062;2022-08-19T02:00:34;101443.22;;;21.79;70.43
65685;BME280;52405;50.844;-1.062;2022-08-19T02:02:59;101452.00;;;21.80;69.97
65685;BME280;52405;50.844;-1.062;2022-08-19T02:05:26;101438.81;;;21.78;69.70
65685;BME280;52405;50.844;-1.062;2022-08-19T02:07:54;101436.16;;;21.80;70.13
65685;BME280;52405;50.844;-1.062;2022-08-19T02:10:21;101440.56;;;21.79;70.32
65685;BME280;52405;50.844;-1.062;2022-08-19T02:12:48;101437.91;;;21.78;69.99
65685;BME280;52405;50.844;-1.062;2022-08-19T02:15:14;101440.56;;;21.76;70.50
65685;BME280;52405;50.844;-1.062;2022-08-19T02:17:40;101440.59;;;21.74;70.40
65685;BME280;52405;50.844;-1.062;2022-08-19T02:20:06;101447.59;;;21.74;70.75
65685;BME280;52405;50.844;-1.062;2022-08-19T02:22:32;101443.22;;;21.74;70.73
65685;BME280;52405;50.844;-1.062;2022-08-19T02:24:58;101452.03;;;21.75;70.65
65685;BME280;52405;50.844;-1.062;2022-08-19T02:27:24;101446.72;;;21.73;70.38
65685;BME280;52405;50.844;-1.062;2022-08-19T02:29:50;101446.72;;;21.73;70.51
65685;BME280;52405;50.844;-1.062;2022-08-19T02:32:17;101453.78;;;21.73;70.23
65685;BME280;52405;50.844;-1.062;2022-08-19T02:34:44;101455.56;;;21.71;70.06
65685;BME280;52405;50.844;-1.062;2022-08-19T02:37:10;101456.41;;;21.70;70.67
65685;BME280;52405;50.844;-1.062;2022-08-19T02:39:55;101458.19;;;21.68;70.63
65685;BME280;52405;50.844;-1.062;2022-08-19T02:42:21;101458.19;;;21.66;70.26
65685;BME280;52405;50.844;-1.062;2022-08-19T02:44:46;101457.31;;;21.66;70.35
65685;BME280;52405;50.844;-1.062;2022-08-19T02:47:12;101453.78;;;21.65;70.88
65685;BME280;52405;50.844;-1.062;2022-08-19T02:49:39;101452.88;;;21.63;70.79
65685;BME280;52405;50.844;-1.062;2022-08-19T02:52:05;101442.31;;;21.59;70.41
65685;BME280;52405;50.844;-1.062;2022-08-19T02:54:30;101443.19;;;21.58;70.90
65685;BME280;52405;50.844;-1.062;2022-08-19T02:56:56;101436.09;;;21.50;70.74
65685;BME280;52405;50.844;-1.062;2022-08-19T02:59:21;101450.22;;;21.54;70.92
65685;BME280;52405;50.844;-1.062;2022-08-19T03:01:47;101452.88;;;21.52;70.86
65685;BME280;52405;50.844;-1.062;2022-08-19T03:04:14;101451.09;;;21.48;70.84
65685;BME280;52405;50.844;-1.062;2022-08-19T03:06:43;101453.75;;;21.50;70.82
65685;BME280;52405;50.844;-1.062;2022-08-19T03:09:09;101456.38;;;21.48;70.82
65685;BME280;52405;50.844;-1.062;2022-08-19T03:11:35;101454.63;;;21.47;70.81
65685;BME280;52405;50.844;-1.062;2022-08-19T03:14:03;101455.50;;;21.48;71.07
65685;BME280;52405;50.844;-1.062;2022-08-19T03:16:32;101452.84;;;21.46;71.15
65685;BME280;52405;50.844;-1.062;2022-08-19T03:18:58;101461.69;;;21.45;70.94
65685;BME280;52405;50.844;-1.062;2022-08-19T03:21:27;101463.41;;;21.43;70.98
65685;BME280;52405;50.844;-1.062;2022-08-19T03:24:01;101469.59;;;21.45;71.31
65685;BME280;52405;50.844;-1.062;2022-08-19T03:26:27;101474.84;;;21.42;70.91
65685;BME280;52405;50.844;-1.062;2022-08-19T03:28:53;101473.09;;;21.40;71.07
65685;BME280;52405;50.844;-1.062;2022-08-19T03:31:20;101479.25;;;21.40;70.96
65685;BME280;52405;50.844;-1.062;2022-08-19T03:33:48;101479.25;;;21.40;71.09
65685;BME280;52405;50.844;-1.062;2022-08-19T03:36:17;101454.53;;;21.29;71.22
65685;BME280;52405;50.844;-1.062;2022-08-19T03:38:46;101467.78;;;21.41;71.26
65685;BME280;52405;50.844;-1.062;2022-08-19T03:41:19;101472.19;;;21.42;71.64
65685;BME280;52405;50.844;-1.062;2022-08-19T03:43:46;101472.19;;;21.42;70.98
65685;BME280;52405;50.844;-1.062;2022-08-19T03:46:17;101468.69;;;21.43;71.33
65685;BME280;52405;50.844;-1.062;2022-08-19T03:48:43;101466.03;;;21.40;70.78
65685;BME280;52405;50.844;-1.062;2022-08-19T03:53:50;101467.84;;;21.47;70.91
65685;BME280;52405;50.844;-1.062;2022-08-19T03:56:16;101471.34;;;21.48;71.00
65685;BME280;52405;50.844;-1.062;2022-08-19T03:58:43;101473.13;;;21.49;70.77
65685;BME280;52405;50.844;-1.062;2022-08-19T04:01:11;101471.38;;;21.49;70.34
65685;BME280;52405;50.844;-1.062;2022-08-19T04:03:38;101473.13;;;21.50;70.50
65685;BME280;52405;50.844;-1.062;2022-08-19T04:06:31;101475.75;;;21.50;71.00
65685;BME280;52405;50.844;-1.062;2022-08-19T04:08:58;101486.31;;;21.50;70.63
65685;BME280;52405;50.844;-1.062;2022-08-19T04:11:26;101484.59;;;21.51;70.46
65685;BME280;52405;50.844;-1.062;2022-08-19T04:13:53;101468.66;;;21.40;70.80
65685;BME280;52405;50.844;-1.062;2022-08-19T04:16:20;101489.00;;;21.53;70.97
65685;BME280;52405;50.844;-1.062;2022-08-19T04:18:47;101486.34;;;21.53;70.23
65685;BME280;52405;50.844;-1.062;2022-08-19T04:21:21;101483.69;;;21.53;70.29
65685;BME280;52405;50.844;-1.062;2022-08-19T04:23:48;101488.13;;;21.53;70.43
65685;BME280;52405;50.844;-1.062;2022-08-19T04:26:21;101480.19;;;21.53;70.30
65685;BME280;52405;50.844;-1.062;2022-08-19T04:28:47;101481.06;;;21.52;70.09
65685;BME280;52405;50.844;-1.062;2022-08-19T04:31:26;101493.41;;;21.51;70.16
65685;BME280;52405;50.844;-1.062;2022-08-19T04:33:54;101488.97;;;21.47;69.81
65685;BME280;52405;50.844;-1.062;2022-08-19T04:36:24;101496.03;;;21.51;69.60
65685;BME280;52405;50.844;-1.062;2022-08-19T04:38:53;101502.19;;;21.50;69.25
65685;BME280;52405;50.844;-1.062;2022-08-19T04:41:19;101507.47;;;21.52;68.98
65685;BME280;52405;50.844;-1.062;2022-08-19T04:44:04;101518.94;;;21.51;69.05
65685;BME280;52405;50.844;-1.062;2022-08-19T04:46:31;101516.31;;;21.51;69.07
65685;BME280;52405;50.844;-1.062;2022-08-19T04:48:58;101522.47;;;21.51;68.84
65685;BME280;52405;50.844;-1.062;2022-08-19T04:51:24;101511.03;;;21.51;68.72
65685;BME280;52405;50.844;-1.062;2022-08-19T04:53:49;101515.41;;;21.52;69.31
65685;BME280;52405;50.844;-1.062;2022-08-19T04:56:17;101515.41;;;21.50;68.90
65685;BME280;52405;50.844;-1.062;2022-08-19T04:58:45;101506.56;;;21.44;68.87
65685;BME280;52405;50.844;-1.062;2022-08-19T05:01:20;101507.50;;;21.49;68.57
65685;BME280;52405;50.844;-1.062;2022-08-19T05:03:46;101505.72;;;21.48;68.47
65685;BME280;52405;50.844;-1.062;2022-08-19T05:06:14;101506.59;;;21.48;68.73
65685;BME280;52405;50.844;-1.062;2022-08-19T05:08:41;101520.69;;;21.46;68.79
65685;BME280;52405;50.844;-1.062;2022-08-19T05:11:11;101511.84;;;21.44;68.61
65685;BME280;52405;50.844;-1.062;2022-08-19T05:13:37;101511.81;;;21.37;68.38
65685;BME280;52405;50.844;-1.062;2022-08-19T05:16:03;101521.53;;;21.40;68.45
65685;BME280;52405;50.844;-1.062;2022-08-19T05:18:29;101521.53;;;21.40;68.52
65685;BME280;52405;50.844;-1.062;2022-08-19T05:21:17;101521.50;;;21.37;68.64
65685;BME280;52405;50.844;-1.062;2022-08-19T05:24:03;101523.25;;;21.33;68.56
65685;BME280;52405;50.844;-1.062;2022-08-19T05:26:32;101527.63;;;21.31;68.65
65685;BME280;52405;50.844;-1.062;2022-08-19T05:28:58;101519.69;;;21.30;68.28
65685;BME280;52405;50.844;-1.062;2022-08-19T05:31:23;101523.22;;;21.32;68.39
65685;BME280;52405;50.844;-1.062;2022-08-19T05:33:49;101532.94;;;21.31;68.33
65685;BME280;52405;50.844;-1.062;2022-08-19T05:36:15;101533.81;;;21.32;68.50
65685;BME280;52405;50.844;-1.062;2022-08-19T05:38:40;101535.59;;;21.33;68.33
65685;BME280;52405;50.844;-1.062;2022-08-19T05:41:08;101539.09;;;21.33;68.55
65685;BME280;52405;50.844;-1.062;2022-08-19T05:43:34;101540.00;;;21.34;68.43
65685;BME280;52405;50.844;-1.062;2022-08-19T05:45:59;101539.09;;;21.35;68.71
65685;BME280;52405;50.844;-1.062;2022-08-19T05:48:25;101541.75;;;21.36;68.85
65685;BME280;52405;50.844;-1.062;2022-08-19T05:50:51;101532.06;;;21.37;68.79
65685;BME280;52405;50.844;-1.062;2022-08-19T05:53:17;101537.34;;;21.37;68.52
65685;BME280;52405;50.844;-1.062;2022-08-19T05:55:43;101540.03;;;21.40;68.48
65685;BME280;52405;50.844;-1.062;2022-08-19T05:58:09;101541.75;;;21.41;69.00
65685;BME280;52405;50.844;-1.062;2022-08-19T06:00:36;101535.59;;;21.37;68.60
65685;BME280;52405;50.844;-1.062;2022-08-19T06:03:02;101538.31;;;21.45;68.53
65685;BME280;52405;50.844;-1.062;2022-08-19T06:05:31;101539.19;;;21.46;68.66
65685;BME280;52405;50.844;-1.062;2022-08-19T06:07:57;101537.44;;;21.49;68.38
65685;BME280;52405;50.844;-1.062;2022-08-19T06:10:24;101543.63;;;21.51;68.48
65685;BME280;52405;50.844;-1.062;2022-08-19T06:12:51;101550.66;;;21.55;68.59
65685;BME280;52405;50.844;-1.062;2022-08-19T06:15:17;101544.53;;;21.56;68.60
65685;BME280;52405;50.844;-1.062;2022-08-19T06:17:42;101539.25;;;21.60;68.48
65685;BME280;52405;50.844;-1.062;2022-08-19T06:20:14;101540.13;;;21.63;68.21
65685;BME280;52405;50.844;-1.062;2022-08-19T06:22:42;101527.81;;;21.65;67.84
65685;BME280;52405;50.844;-1.062;2022-08-19T06:25:08;101527.78;;;21.68;68.06
65685;BME280;52405;50.844;-1.062;2022-08-19T06:27:34;101532.22;;;21.72;67.76
65685;BME280;52405;50.844;-1.062;2022-08-19T06:30:01;101534.88;;;21.75;67.61
65685;BME280;52405;50.844;-1.062;2022-08-19T06:32:27;101541.03;;;21.79;67.12
65685;BME280;52405;50.844;-1.062;2022-08-19T06:34:53;101550.75;;;21.79;66.88
65685;BME280;52405;50.844;-1.062;2022-08-19T06:37:18;101542.81;;;21.85;66.84
65685;BME280;52405;50.844;-1.062;2022-08-19T06:39:44;101549.91;;;21.93;66.97
65685;BME280;52405;50.844;-1.062;2022-08-19T06:42:11;101546.38;;;22.01;67.14
65685;BME280;52405;50.844;-1.062;2022-08-19T06:44:43;101541.97;;;22.09;66.99
65685;BME280;52405;50.844;-1.062;2022-08-19T06:47:11;101549.94;;;22.15;66.35
65685;BME280;52405;50.844;-1.062;2022-08-19T06:49:37;101550.81;;;22.22;66.55
65685;BME280;52405;50.844;-1.062;2022-08-19T06:52:03;101544.66;;;22.27;66.11
65685;BME280;52405;50.844;-1.062;2022-08-19T06:54:29;101549.09;;;22.31;65.87
65685;BME280;52405;50.844;-1.062;2022-08-19T06:56:59;101541.16;;;22.28;65.68
65685;BME280;52405;50.844;-1.062;2022-08-19T06:59:29;101556.16;;;22.39;65.33
65685;BME280;52405;50.844;-1.062;2022-08-19T07:01:58;101562.34;;;22.41;65.12
65685;BME280;52405;50.844;-1.062;2022-08-19T07:04:30;101550.88;;;22.37;64.92
65685;BME280;52405;50.844;-1.062;2022-08-19T07:07:10;101559.66;;;22.33;64.77
65685;BME280;52405;50.844;-1.062;2022-08-19T07:09:38;101561.44;;;22.31;65.22
65685;BME280;52405;50.844;-1.062;2022-08-19T07:12:06;101561.41;;;22.29;64.88
65685;BME280;52405;50.844;-1.062;2022-08-19T07:14:33;101529.66;;;22.16;65.09
65685;BME280;52405;50.844;-1.062;2022-08-19T07:17:06;101563.19;;;22.38;65.06
65685;BME280;52405;50.844;-1.062;2022-08-19T07:19:33;101566.72;;;22.43;64.96
65685;BME280;52405;50.844;-1.062;2022-08-19T07:22:01;101563.19;;;22.47;64.41
65685;BME280;52405;50.844;-1.062;2022-08-19T07:24:27;101566.72;;;22.49;64.33
65685;BME280;52405;50.844;-1.062;2022-08-19T07:26:54;101567.59;;;22.51;64.43
65685;BME280;52405;50.844;-1.062;2022-08-19T07:29:22;101577.31;;;22.54;64.08
65685;BME280;52405;50.844;-1.062;2022-08-19T07:31:49;101554.38;;;22.45;64.11
65685;BME280;52405;50.844;-1.062;2022-08-19T07:34:16;101565.84;;;22.52;64.14
65685;BME280;52405;50.844;-1.062;2022-08-19T07:36:42;101571.13;;;22.49;63.70
65685;BME280;52405;50.844;-1.062;2022-08-19T07:39:13;101571.16;;;22.43;64.04
65685;BME280;52405;50.844;-1.062;2022-08-19T07:41:39;101573.78;;;22.38;63.60
65685;BME280;52405;50.844;-1.062;2022-08-19T07:44:06;101580.84;;;22.31;64.14
65685;BME280;52405;50.844;-1.062;2022-08-19T07:46:37;101578.16;;;22.22;64.57
65685;BME280;52405;50.844;-1.062;2022-08-19T07:49:05;101578.16;;;22.13;65.18
65685;BME280;52405;50.844;-1.062;2022-08-19T07:51:31;101580.75;;;22.05;65.31
65685;BME280;52405;50.844;-1.062;2022-08-19T07:53:56;101582.53;;;22.00;66.05
65685;BME280;52405;50.844;-1.062;2022-08-19T07:56:23;101592.22;;;21.92;66.46
65685;BME280;52405;50.844;-1.062;2022-08-19T07:58:50;101578.94;;;21.81;66.23
65685;BME280;52405;50.844;-1.062;2022-08-19T08:01:20;101583.34;;;21.76;66.33
65685;BME280;52405;50.844;-1.062;2022-08-19T08:03:47;101587.72;;;21.66;66.23
65685;BME280;52405;50.844;-1.062;2022-08-19T08:06:32;101592.97;;;21.57;66.55
65685;BME280;52405;50.844;-1.062;2022-08-19T08:09:20;101567.28;;;21.33;66.54
65685;BME280;52405;50.844;-1.062;2022-08-19T08:11:53;101604.31;;;21.42;67.75
65685;BME280;52405;50.844;-1.062;2022-08-19T08:14:32;101605.19;;;21.38;67.71
65685;BME280;52405;50.844;-1.062;2022-08-19T08:16:59;101606.06;;;21.34;67.99
65685;BME280;52405;50.844;-1.062;2022-08-19T08:19:25;101568.06;;;21.12;68.24
65685;BME280;52405;50.844;-1.062;2022-08-19T08:21:56;101598.97;;;21.31;67.64
65685;BME280;52405;50.844;-1.062;2022-08-19T08:24:23;101594.56;;;21.27;67.82
65685;BME280;52405;50.844;-1.062;2022-08-19T08:26:48;101603.41;;;21.31;68.19
65685;BME280;52405;50.844;-1.062;2022-08-19T08:29:14;101602.53;;;21.35;67.84
65685;BME280;52405;50.844;-1.062;2022-08-19T08:31:42;101608.69;;;21.37;67.66
65685;BME280;52405;50.844;-1.062;2022-08-19T08:34:08;101606.06;;;21.37;67.87
65685;BME280;52405;50.844;-1.062;2022-08-19T08:36:39;101605.19;;;21.36;67.42
65685;BME280;52405;50.844;-1.062;2022-08-19T08:39:08;101609.56;;;21.31;67.44
65685;BME280;52405;50.844;-1.062;2022-08-19T08:44:32;101613.84;;;21.15;67.93
65685;BME280;52405;50.844;-1.062;2022-08-19T08:47:09;101615.63;;;21.12;68.70
65685;BME280;52405;50.844;-1.062;2022-08-19T08:49:59;101625.28;;;21.11;68.83
65685;BME280;52405;50.844;-1.062;2022-08-19T08:52:28;101624.41;;;21.11;68.85
65685;BME280;52405;50.844;-1.062;2022-08-19T08:54:57;101623.50;;;21.07;69.33
65685;BME280;52405;50.844;-1.062;2022-08-19T08:58:09;101633.19;;;21.05;68.85
65685;BME280;52405;50.844;-1.062;2022-08-19T09:00:36;101624.31;;;21.00;68.24
65685;BME280;52405;50.844;-1.062;2022-08-19T09:03:03;101626.06;;;20.96;68.86
65685;BME280;52405;50.844;-1.062;2022-08-19T09:06:01;101609.28;;;20.87;68.63
65685;BME280;52405;50.844;-1.062;2022-08-19T09:11:29;101630.44;;;20.90;68.86
65685;BME280;52405;50.844;-1.062;2022-08-19T09:16:33;101637.50;;;20.94;68.70
65685;BME280;52405;50.844;-1.062;2022-08-19T09:19:05;101634.00;;;20.96;68.43
65685;BME280;52405;50.844;-1.062;2022-08-19T09:21:32;101634.88;;;20.98;68.23
65685;BME280;52405;50.844;-1.062;2022-08-19T09:23:58;101640.19;;;21.00;67.68
65685;BME280;52405;50.844;-1.062;2022-08-19T09:26:24;101641.06;;;20.99;67.62
65685;BME280;52405;50.844;-1.062;2022-08-19T09:28:52;101635.78;;;20.99;67.59
65685;BME280;52405;50.844;-1.062;2022-08-19T09:31:20;101638.41;;;20.96;67.27
65685;BME280;52405;50.844;-1.062;2022-08-19T09:33:47;101640.16;;;20.94;67.16
65685;BME280;52405;50.844;-1.062;2022-08-19T09:36:19;101610.06;;;20.72;67.53
65685;BME280;52405;50.844;-1.062;2022-08-19T09:38:45;101644.56;;;20.96;67.09
65685;BME280;52405;50.844;-1.062;2022-08-19T09:41:16;101640.16;;;20.97;66.83
65685;BME280;52405;50.844;-1.062;2022-08-19T09:43:45;101648.13;;;21.06;67.50
65685;BME280;52405;50.844;-1.062;2022-08-19T09:46:11;101643.81;;;21.16;67.70
65685;BME280;52405;50.844;-1.062;2022-08-19T09:48:39;101648.28;;;21.25;67.85
65685;BME280;52405;50.844;-1.062;2022-08-19T09:51:07;101643.94;;;21.34;67.54
65685;BME280;52405;50.844;-1.062;2022-08-19T09:53:37;101647.50;;;21.44;68.08
65685;BME280;52405;50.844;-1.062;2022-08-19T09:56:04;101649.38;;;21.54;67.45
65685;BME280;52405;50.844;-1.062;2022-08-19T09:58:31;101645.88;;;21.66;66.75
65685;BME280;52405;50.844;-1.062;2022-08-19T10:00:58;101648.59;;;21.79;67.76
65685;BME280;52405;50.844;-1.062;2022-08-19T10:03:26;101645.13;;;21.93;66.35
65685;BME280;52405;50.844;-1.062;2022-08-19T10:05:52;101643.41;;;22.08;66.14
65685;BME280;52405;50.844;-1.062;2022-08-19T10:08:28;101635.47;;;22.23;66.31
65685;BME280;52405;50.844;-1.062;2022-08-19T10:10:56;101641.72;;;22.35;65.61
65685;BME280;52405;50.844;-1.062;2022-08-19T10:13:24;101642.63;;;22.44;65.92
65685;BME280;52405;50.844;-1.062;2022-08-19T10:15:56;101639.97;;;22.57;65.66
65685;BME280;52405;50.844;-1.062;2022-08-19T10:18:23;101644.41;;;22.68;64.53
65685;BME280;52405;50.844;-1.062;2022-08-19T10:20:50;101642.63;;;22.75;64.15
65685;BME280;52405;50.844;-1.062;2022-08-19T10:23:19;101644.41;;;22.79;64.83
65685;BME280;52405;50.844;-1.062;2022-08-19T10:25:45;101651.44;;;22.79;64.01
65685;BME280;52405;50.844;-1.062;2022-08-19T10:28:11;101648.81;;;22.76;63.86
65685;BME280;52405;50.844;-1.062;2022-08-19T10:30:38;101654.13;;;22.74;64.37
65685;BME280;52405;50.844;-1.062;2022-08-19T10:33:05;101636.44;;;22.71;63.92
65685;BME280;52405;50.844;-1.062;2022-08-19T10:35:31;101640.84;;;22.80;61.34
65685;BME280;52405;50.844;-1.062;2022-08-19T10:37:57;101642.66;;;22.83;60.70
65685;BME280;52405;50.844;-1.062;2022-08-19T10:40:26;101651.47;;;22.82;59.21
65685;BME280;52405;50.844;-1.062;2022-08-19T10:42:53;101663.81;;;22.80;59.02
65685;BME280;52405;50.844;-1.062;2022-08-19T10:45:18;101670.88;;;22.84;58.75
65685;BME280;52405;50.844;-1.062;2022-08-19T10:47:44;101668.22;;;22.91;58.29
65685;BME280;52405;50.844;-1.062;2022-08-19T10:50:10;101664.69;;;23.02;57.23
65685;BME280;52405;50.844;-1.062;2022-08-19T10:52:54;101664.69;;;23.19;55.77
65685;BME280;52405;50.844;-1.062;2022-08-19T10:55:22;101655.84;;;23.38;56.00
65685;BME280;52405;50.844;-1.062;2022-08-19T10:58:12;101657.53;;;23.65;55.15
65685;BME280;52405;50.844;-1.062;2022-08-19T11:00:38;101665.41;;;23.90;53.84
65685;BME280;52405;50.844;-1.062;2022-08-19T11:03:05;101657.31;;;24.13;54.37
65685;BME280;52405;50.844;-1.062;2022-08-19T11:05:31;101664.28;;;24.30;53.14
65685;BME280;52405;50.844;-1.062;2022-08-19T11:07:57;101664.28;;;24.30;51.88
65685;BME280;52405;50.844;-1.062;2022-08-19T11:10:22;101665.19;;;24.27;51.97
65685;BME280;52405;50.844;-1.062;2022-08-19T11:12:48;101663.41;;;24.26;52.20
65685;BME280;52405;50.844;-1.062;2022-08-19T11:15:18;101664.31;;;24.27;51.51
65685;BME280;52405;50.844;-1.062;2022-08-19T11:17:43;101674.03;;;24.28;51.66
65685;BME280;52405;50.844;-1.062;2022-08-19T11:20:11;101666.94;;;24.31;51.08
65685;BME280;52405;50.844;-1.062;2022-08-19T11:22:38;101661.56;;;24.39;49.79
65685;BME280;52405;50.844;-1.062;2022-08-19T11:25:04;101652.63;;;24.60;49.71
65685;BME280;52405;50.844;-1.062;2022-08-19T11:27:29;101652.47;;;24.78;47.81
65685;BME280;52405;50.844;-1.062;2022-08-19T11:29:56;101656.75;;;24.93;48.76
65685;BME280;52405;50.844;-1.062;2022-08-19T11:32:21;101656.50;;;25.18;47.29
65685;BME280;52405;50.844;-1.062;2022-08-19T11:34:47;101668.84;;;25.31;45.24
65685;BME280;52405;50.844;-1.062;2022-08-19T11:37:12;101657.25;;;25.37;45.07
65685;BME280;52405;50.844;-1.062;2022-08-19T11:39:38;101662.47;;;25.46;44.09
65685;BME280;52405;50.844;-1.062;2022-08-19T11:42:05;101658.75;;;25.59;44.07
65685;BME280;52405;50.844;-1.062;2022-08-19T11:44:51;101667.50;;;25.69;43.36
65685;BME280;52405;50.844;-1.062;2022-08-19T11:47:17;101670.16;;;25.69;44.12
65685;BME280;52405;50.844;-1.062;2022-08-19T11:49:43;101657.81;;;25.65;42.37
65685;BME280;52405;50.844;-1.062;2022-08-19T11:52:09;101663.13;;;25.64;42.11
65685;BME280;52405;50.844;-1.062;2022-08-19T11:54:35;101654.19;;;25.69;41.56
65685;BME280;52405;50.844;-1.062;2022-08-19T11:57:03;101652.16;;;25.93;41.19
65685;BME280;52405;50.844;-1.062;2022-08-19T11:59:29;101642.91;;;26.19;40.52
65685;BME280;52405;50.844;-1.062;2022-08-19T12:01:55;101608.25;;;26.23;39.02
65685;BME280;52405;50.844;-1.062;2022-08-19T12:04:21;101630.84;;;26.53;38.17
65685;BME280;52405;50.844;-1.062;2022-08-19T12:06:47;101622.72;;;26.63;37.53
65685;BME280;52405;50.844;-1.062;2022-08-19T12:09:13;101633.31;;;26.67;36.51
65685;BME280;52405;50.844;-1.062;2022-08-19T12:11:40;101634.19;;;26.68;37.28
65685;BME280;52405;50.844;-1.062;2022-08-19T12:14:08;101632.38;;;26.70;36.84
65685;BME280;52405;50.844;-1.062;2022-08-19T12:16:34;101624.28;;;26.76;36.02
65685;BME280;52405;50.844;-1.062;2022-08-19T12:19:03;101630.41;;;26.81;36.71
65685;BME280;52405;50.844;-1.062;2022-08-19T12:21:30;101625.16;;;26.78;36.31
65685;BME280;52405;50.844;-1.062;2022-08-19T12:23:58;101629.50;;;26.82;36.43
65685;BME280;52405;50.844;-1.062;2022-08-19T12:26:25;101610.06;;;26.76;35.49
65685;BME280;52405;50.844;-1.062;2022-08-19T12:28:51;101627.56;;;26.90;35.17
65685;BME280;52405;50.844;-1.062;2022-08-19T12:31:17;101625.84;;;26.88;35.20
65685;BME280;52405;50.844;-1.062;2022-08-19T12:33:45;101625.91;;;26.85;35.01
65685;BME280;52405;50.844;-1.062;2022-08-19T12:36:12;101629.56;;;26.78;35.22
65685;BME280;52405;50.844;-1.062;2022-08-19T12:38:38;101632.34;;;26.71;36.43
65685;BME280;52405;50.844;-1.062;2022-08-19T12:41:05;101609.38;;;26.64;35.95
65685;BME280;52405;50.844;-1.062;2022-08-19T12:43:33;101624.50;;;26.64;35.18
65685;BME280;52405;50.844;-1.062;2022-08-19T12:46:00;101615.69;;;26.57;34.45
65685;BME280;52405;50.844;-1.062;2022-08-19T12:48:26;101614.94;;;26.50;35.02
65685;BME280;52405;50.844;-1.062;2022-08-19T12:50:51;101614.13;;;26.45;34.49
65685;BME280;52405;50.844;-1.062;2022-08-19T12:53:16;101591.34;;;26.24;34.08
65685;BME280;52405;50.844;-1.062;2022-08-19T12:55:42;101605.50;;;26.28;34.72
65685;BME280;52405;50.844;-1.062;2022-08-19T12:58:09;101610.94;;;26.20;34.33
65685;BME280;52405;50.844;-1.062;2022-08-19T13:00:34;101619.81;;;26.21;34.31